createdAt,value
2022-08-26T00:02:28.064Z,100.00
2022-08-26T00:04:58.005Z,100.00
2022-08-26T00:07:28.489Z,100.00
2022-08-26T00:10:00.351Z,100.00
2022-08-26T00:12:37.612Z,100.00
2022-08-26T00:15:13.388Z,100.00
2022-08-26T00:17:43.157Z,100.00
2022-08-26T00:20:16.866Z,100.00
2022-08-26T00:22:46.462Z,100.00
2022-08-26T00:25:18.695Z,100.00
2022-08-26T00:27:49.366Z,100.00
2022-08-26T00:30:24.581Z,100.00
2022-08-26T00:32:57.083Z,100.00
2022-08-26T00:35:28.859Z,100.00
2022-08-26T00:37:58.997Z,100.00
2022-08-26T00:40:34.715Z,100.00
2022-08-26T00:43:07.070Z,100.00
2022-08-26T00:45:46.630Z,100.00
2022-08-26T00:48:21.517Z,100.00
2022-08-26T00:50:58.566Z,100.00
2022-08-26T00:53:35.095Z,100.00
2022-08-26T00:56:13.973Z,100.00
2022-08-26T00:58:45.366Z,100.00
2022-08-26T01:01:16.108Z,100.00
2022-08-26T01:03:47.742Z,100.00
2022-08-26T01:06:17.334Z,100.00
2022-08-26T01:08:47.001Z,100.00
2022-08-26T01:11:18.011Z,100.00
2022-08-26T01:13:50.033Z,100.00
2022-08-26T01:16:19.600Z,100.00
2022-08-26T01:18:50.116Z,100.00
2022-08-26T01:21:30.826Z,100.00
2022-08-26T01:24:02.209Z,100.00
2022-08-26T01:26:35.764Z,100.00
2022-08-26T01:29:09.427Z,100.00
2022-08-26T01:31:46.649Z,100.00
2022-08-26T01:34:23.444Z,100.00
2022-08-26T01:37:02.339Z,100.00
2022-08-26T01:39:35.989Z,100.00
2022-08-26T01:42:11.812Z,100.00
2022-08-26T01:44:47.661Z,100.00
2022-08-26T01:47:20.029Z,100.00
2022-08-26T01:49:54.385Z,100.00
2022-08-26T01:52:29.121Z,100.00
2022-08-26T01:55:01.770Z,100.00
2022-08-26T01:57:32.180Z,100.00
2022-08-26T02:00:05.828Z,100.00
2022-08-26T02:02:42.966Z,100.00
2022-08-26T02:05:19.891Z,100.00
2022-08-26T02:07:51.693Z,100.00
2022-08-26T02:10:22.941Z,100.00
2022-08-26T02:12:53.061Z,100.00
2022-08-26T02:15:22.763Z,100.00
2022-08-26T02:17:53.193Z,100.00
2022-08-26T02:20:23.165Z,100.00
2022-08-26T02:22:52.875Z,100.00
2022-08-26T02:25:31.069Z,100.00
2022-08-26T02:28:01.113Z,100.00
2022-08-26T02:30:34.768Z,100.00
2022-08-26T02:33:05.592Z,100.00
2022-08-26T02:35:37.806Z,100.00
2022-08-26T02:38:11.177Z,100.00
2022-08-26T02:40:43.850Z,100.00
2022-08-26T02:43:13.800Z,100.00
2022-08-26T02:45:43.801Z,100.00
2022-08-26T02:48:19.916Z,100.00
2022-08-26T02:50:49.983Z,100.00
2022-08-26T02:53:25.093Z,100.00
2022-08-26T02:55:56.449Z,100.00
2022-08-26T02:58:25.944Z,100.00
2022-08-26T03:00:56.197Z,100.00
2022-08-26T03:03:25.921Z,100.00
2022-08-26T03:05:56.095Z,100.00
2022-08-26T03:08:25.779Z,100.00
2022-08-26T03:10:56.632Z,100.00
2022-08-26T03:13:26.280Z,100.00
2022-08-26T03:15:56.485Z,100.00
2022-08-26T03:18:25.982Z,100.00
2022-08-26T03:20:55.838Z,100.00
2022-08-26T03:23:25.612Z,100.00
2022-08-26T03:25:56.734Z,100.00
2022-08-26T03:28:27.267Z,100.00
2022-08-26T03:30:56.977Z,100.00
2022-08-26T03:33:27.965Z,100.00
2022-08-26T03:35:57.428Z,100.00
2022-08-26T03:38:26.885Z,100.00
2022-08-26T03:40:57.690Z,100.00
2022-08-26T03:43:27.549Z,100.00
2022-08-26T03:45:57.053Z,100.00
2022-08-26T03:48:26.861Z,100.00
2022-08-26T03:50:56.304Z,100.00
2022-08-26T03:53:27.066Z,100.00
2022-08-26T03:55:58.464Z,100.00
2022-08-26T03:58:27.969Z,100.00
2022-08-26T04:00:57.452Z,100.00
2022-08-26T04:03:45.791Z,100.00
2022-08-26T04:06:15.261Z,100.00
2022-08-26T04:08:46.457Z,100.00
2022-08-26T04:11:21.674Z,100.00
2022-08-26T04:13:52.040Z,100.00
2022-08-26T04:16:21.662Z,100.00
2022-08-26T04:18:52.328Z,100.00
2022-08-26T04:21:21.890Z,100.00
2022-08-26T04:23:52.032Z,100.00
2022-08-26T04:26:27.420Z,100.00
2022-08-26T04:28:57.397Z,100.00
2022-08-26T04:31:29.042Z,100.00
2022-08-26T04:34:00.769Z,100.00
2022-08-26T04:36:30.317Z,100.00
2022-08-26T04:39:03.367Z,100.00
2022-08-26T04:41:34.907Z,100.00
2022-08-26T04:44:07.718Z,100.00
2022-08-26T04:46:39.956Z,100.00
2022-08-26T04:49:14.402Z,100.00
2022-08-26T04:51:44.144Z,100.00
2022-08-26T04:54:14.132Z,100.00
2022-08-26T04:56:49.519Z,100.00
2022-08-26T04:59:19.724Z,100.00
2022-08-26T05:01:56.251Z,100.00
2022-08-26T05:04:26.511Z,100.00
2022-08-26T05:07:02.441Z,100.00
2022-08-26T05:09:32.528Z,100.00
2022-08-26T05:12:03.674Z,100.00
2022-08-26T05:14:34.326Z,100.00
2022-08-26T05:17:03.854Z,100.00
2022-08-26T05:19:34.641Z,100.00
2022-08-26T05:22:05.451Z,100.00
2022-08-26T05:24:36.312Z,100.00
2022-08-26T05:27:11.849Z,100.00
2022-08-26T05:29:42.693Z,100.00
2022-08-26T05:32:14.865Z,100.00
2022-08-26T05:34:44.963Z,100.00
2022-08-26T05:37:16.564Z,100.00
2022-08-26T05:39:48.804Z,100.00
2022-08-26T05:42:22.306Z,100.00
2022-08-26T05:44:56.092Z,100.00
2022-08-26T05:47:26.576Z,100.00
2022-08-26T05:49:56.557Z,100.00
2022-08-26T05:52:26.261Z,100.00
2022-08-26T05:54:55.783Z,100.00
2022-08-26T05:57:26.913Z,100.00
2022-08-26T05:59:58.744Z,100.00
2022-08-26T06:02:28.626Z,100.00
2022-08-26T06:04:58.294Z,100.00
2022-08-26T06:07:48.160Z,100.00
2022-08-26T06:10:33.484Z,100.00
2022-08-26T06:13:11.588Z,100.00
2022-08-26T06:15:44.251Z,100.00
2022-08-26T06:18:17.489Z,100.00
2022-08-26T06:20:58.048Z,100.00
2022-08-26T06:23:48.126Z,100.00
2022-08-26T06:26:18.518Z,100.00
2022-08-26T06:28:49.433Z,100.00
2022-08-26T06:31:19.053Z,100.00
2022-08-26T06:33:48.777Z,100.00
2022-08-26T06:36:21.264Z,100.00
2022-08-26T06:38:53.744Z,100.00
2022-08-26T06:41:24.613Z,100.00
2022-08-26T06:43:56.128Z,100.00
2022-08-26T06:46:26.055Z,100.00
2022-08-26T06:48:58.143Z,100.00
2022-08-26T06:51:32.123Z,100.00
2022-08-26T06:54:06.018Z,100.00
2022-08-26T06:56:39.468Z,100.00
2022-08-26T06:59:12.593Z,100.00
2022-08-26T07:01:45.618Z,100.00
2022-08-26T07:04:20.188Z,100.00
2022-08-26T07:06:55.273Z,100.00
2022-08-26T07:09:30.270Z,100.00
2022-08-26T07:12:00.376Z,100.00
2022-08-26T07:14:31.707Z,100.00
2022-08-26T07:17:02.564Z,100.00
2022-08-26T07:19:32.053Z,100.00
2022-08-26T07:22:04.434Z,100.00
2022-08-26T07:24:36.891Z,100.00
2022-08-26T07:27:11.944Z,100.00
2022-08-26T07:29:44.823Z,100.00
2022-08-26T07:32:17.030Z,100.00
2022-08-26T07:34:47.641Z,100.00
2022-08-26T07:37:17.633Z,100.00
2022-08-26T07:39:48.537Z,100.00
2022-08-26T07:42:20.735Z,100.00
2022-08-26T07:44:51.681Z,100.00
2022-08-26T07:47:25.462Z,100.00
2022-08-26T07:49:57.782Z,100.00
2022-08-26T07:52:30.877Z,100.00
2022-08-26T07:55:04.351Z,100.00
2022-08-26T07:57:34.632Z,100.00
2022-08-26T08:00:11.257Z,100.00
2022-08-26T08:02:45.633Z,100.00
2022-08-26T08:05:20.121Z,100.00
2022-08-26T08:07:53.517Z,100.00
2022-08-26T08:10:31.315Z,100.00
2022-08-26T08:13:01.674Z,100.00
2022-08-26T08:15:37.654Z,100.00
2022-08-26T08:18:15.649Z,100.00
2022-08-26T08:20:54.643Z,100.00
2022-08-26T08:23:35.498Z,100.00
2022-08-26T08:26:08.422Z,100.00
2022-08-26T08:28:38.780Z,100.00
2022-08-26T08:31:10.009Z,100.00
2022-08-26T08:33:39.593Z,100.00
2022-08-26T08:36:09.664Z,100.00
2022-08-26T08:38:48.350Z,100.00
2022-08-26T08:41:42.081Z,100.00
2022-08-26T08:44:19.951Z,100.00
2022-08-26T08:46:56.599Z,100.00
2022-08-26T08:49:29.239Z,100.00
2022-08-26T08:52:05.700Z,100.00
2022-08-26T08:54:35.413Z,100.00
2022-08-26T08:57:14.216Z,100.00
2022-08-26T08:59:58.222Z,100.00
2022-08-26T09:02:44.253Z,100.00
2022-08-26T09:05:22.505Z,100.00
2022-08-26T09:07:59.952Z,100.00
2022-08-26T09:10:38.417Z,100.00
2022-08-26T09:13:16.830Z,100.00
2022-08-26T09:16:02.005Z,100.00
2022-08-26T09:19:04.589Z,100.00
2022-08-26T09:21:36.036Z,100.00
2022-08-26T09:24:07.526Z,100.00
2022-08-26T09:26:48.473Z,100.00
2022-08-26T09:29:28.257Z,100.00
2022-08-26T09:32:21.193Z,100.00
2022-08-26T09:34:59.798Z,100.00
2022-08-26T09:37:43.642Z,100.00
2022-08-26T09:40:29.035Z,100.00
2022-08-26T09:43:22.347Z,100.00
2022-08-26T09:45:59.408Z,100.00
2022-08-26T09:48:36.106Z,100.00
2022-08-26T09:51:32.602Z,100.00
2022-08-26T09:54:05.786Z,100.00
2022-08-26T09:56:40.198Z,100.00
2022-08-26T09:59:12.772Z,100.00
2022-08-26T10:01:45.290Z,100.00
2022-08-26T10:04:22.200Z,100.00
2022-08-26T10:07:01.704Z,100.00
2022-08-26T10:09:36.772Z,100.00
2022-08-26T10:12:12.993Z,100.00
2022-08-26T10:14:49.737Z,100.00
2022-08-26T10:17:31.484Z,100.00
2022-08-26T10:20:23.641Z,100.00
2022-08-26T10:23:03.351Z,100.00
2022-08-26T10:25:48.197Z,100.00
2022-08-26T10:28:30.925Z,100.00
2022-08-26T10:31:08.417Z,100.00
2022-08-26T10:33:40.604Z,100.00
2022-08-26T10:36:39.315Z,100.00
2022-08-26T10:39:27.571Z,100.00
2022-08-26T10:42:05.873Z,100.00
2022-08-26T10:44:39.225Z,100.00
2022-08-26T10:47:21.500Z,100.00
2022-08-26T10:50:00.033Z,100.00
2022-08-26T10:52:52.294Z,100.00
2022-08-26T10:55:35.219Z,87.72
2022-08-26T10:58:28.830Z,70.33
2022-08-26T11:01:29.055Z,74.68
2022-08-26T11:04:26.423Z,79.25
2022-08-26T11:07:31.723Z,82.51
2022-08-26T11:10:06.779Z,76.02
2022-08-26T11:12:58.255Z,76.82
2022-08-26T11:16:10.487Z,76.76
2022-08-26T11:18:48.749Z,71.34
2022-08-26T11:22:06.223Z,69.63
2022-08-26T11:25:09.515Z,74.42
2022-08-26T11:28:06.810Z,79.03
2022-08-26T11:30:57.740Z,84.41
2022-08-26T11:34:02.665Z,83.50
2022-08-26T11:36:59.019Z,84.00
2022-08-26T11:39:36.860Z,82.02
2022-08-26T11:42:27.823Z,79.43
2022-08-26T11:45:04.702Z,77.01
2022-08-26T11:47:35.379Z,73.97
2022-08-26T11:50:16.345Z,67.36
2022-08-26T11:52:57.073Z,66.28
2022-08-26T11:55:26.809Z,63.36
2022-08-26T11:58:01.843Z,58.88
2022-08-26T12:00:51.524Z,59.14
2022-08-26T12:03:27.042Z,60.85
2022-08-26T12:05:57.239Z,60.17
2022-08-26T12:08:31.529Z,61.90
2022-08-26T12:11:09.639Z,63.55
2022-08-26T12:13:39.336Z,63.09
2022-08-26T12:16:11.247Z,58.99
2022-08-26T12:18:46.237Z,55.20
2022-08-26T12:21:24.397Z,55.02
2022-08-26T12:23:56.884Z,56.59
2022-08-26T12:26:30.441Z,58.51
2022-08-26T12:29:20.312Z,57.47
2022-08-26T12:32:11.057Z,57.61
2022-08-26T12:34:42.405Z,55.36
2022-08-26T12:37:14.670Z,54.64
2022-08-26T12:39:46.027Z,53.38
2022-08-26T12:43:07.783Z,48.31
2022-08-26T12:45:43.026Z,52.01
2022-08-26T12:48:24.572Z,54.19
2022-08-26T12:50:54.446Z,50.85
2022-08-26T12:53:27.200Z,50.87
2022-08-26T12:56:00.186Z,54.37
2022-08-26T12:58:33.227Z,51.48
2022-08-26T13:01:23.473Z,57.13
2022-08-26T13:03:54.549Z,48.43
2022-08-26T13:06:31.076Z,48.43
2022-08-26T13:09:06.446Z,49.35
2022-08-26T13:12:02.259Z,49.72
2022-08-26T13:14:31.862Z,49.64
2022-08-26T13:17:01.712Z,47.19
2022-08-26T13:19:31.381Z,45.38
2022-08-26T13:22:02.314Z,44.10
2022-08-26T13:24:37.997Z,45.86
2022-08-26T13:27:14.312Z,43.67
2022-08-26T13:29:43.739Z,46.80
2022-08-26T13:32:13.578Z,40.76
2022-08-26T13:34:51.507Z,43.11
2022-08-26T13:37:22.231Z,43.93
2022-08-26T13:40:01.109Z,45.42
2022-08-26T13:42:31.895Z,42.48
2022-08-26T13:45:01.876Z,43.99
2022-08-26T13:47:33.342Z,44.25
2022-08-26T13:50:03.024Z,45.87
2022-08-26T13:52:32.643Z,45.13
2022-08-26T13:55:02.427Z,46.89
2022-08-26T13:57:34.461Z,50.46
2022-08-26T14:00:07.616Z,48.95
2022-08-26T14:02:40.640Z,51.70
2022-08-26T14:05:10.763Z,48.79
2022-08-26T14:07:40.647Z,48.35
2022-08-26T14:10:12.372Z,45.69
2022-08-26T14:12:43.794Z,43.83
2022-08-26T14:15:16.197Z,42.02
2022-08-26T14:17:47.360Z,42.15
2022-08-26T14:20:23.709Z,43.24
2022-08-26T14:25:43.055Z,42.78
2022-08-26T14:28:14.028Z,44.32
2022-08-26T14:30:46.335Z,44.25
2022-08-26T14:33:16.773Z,46.44
2022-08-26T14:35:48.841Z,44.07
2022-08-26T14:38:18.817Z,45.57
2022-08-26T14:40:48.467Z,42.78
2022-08-26T14:43:19.444Z,40.84
2022-08-26T14:45:49.074Z,42.29
2022-08-26T14:48:19.179Z,42.39
2022-08-26T14:50:48.709Z,43.60
2022-08-26T14:53:35.828Z,44.13
2022-08-26T14:56:05.694Z,42.98
2022-08-26T14:58:36.748Z,47.08
2022-08-26T15:01:06.841Z,44.17
2022-08-26T15:03:36.327Z,43.32
2022-08-26T15:06:06.592Z,43.09
2022-08-26T15:08:37.284Z,42.28
2022-08-26T15:11:07.188Z,43.44
2022-08-26T15:13:37.965Z,43.02
2022-08-26T15:16:08.091Z,43.12
2022-08-26T15:18:37.599Z,43.68
2022-08-26T15:21:08.847Z,42.99
2022-08-26T15:23:39.316Z,42.51
2022-08-26T15:26:11.379Z,43.63
2022-08-26T15:28:42.449Z,43.73
2022-08-26T15:31:12.100Z,44.55
2022-08-26T15:33:41.573Z,45.86
2022-08-26T15:36:11.615Z,45.76
2022-08-26T15:38:43.261Z,47.31
2022-08-26T15:41:14.221Z,47.57
2022-08-26T15:43:44.934Z,48.93
2022-08-26T15:46:14.495Z,50.05
2022-08-26T15:48:44.378Z,51.80
2022-08-26T15:51:23.606Z,54.55
2022-08-26T15:53:56.101Z,55.20
2022-08-26T15:56:27.031Z,54.99
2022-08-26T15:58:58.504Z,56.14
2022-08-26T16:01:29.489Z,57.52
2022-08-26T16:03:59.659Z,58.75
2022-08-26T16:06:34.492Z,59.64
2022-08-26T16:09:05.080Z,60.79
2022-08-26T16:11:35.883Z,62.24
2022-08-26T16:14:08.296Z,64.28
2022-08-26T16:16:40.275Z,64.84
2022-08-26T16:19:11.512Z,64.92
2022-08-26T16:21:42.589Z,64.52
2022-08-26T16:24:12.690Z,65.77
2022-08-26T16:26:45.278Z,67.18
2022-08-26T16:29:18.454Z,68.76
2022-08-26T16:31:51.848Z,69.17
2022-08-26T16:34:21.628Z,69.36
2022-08-26T16:36:51.224Z,70.37
2022-08-26T16:39:20.700Z,71.96
2022-08-26T16:41:50.257Z,73.37
2022-08-26T16:44:22.153Z,73.41
2022-08-26T16:46:58.500Z,74.27
2022-08-26T16:49:28.414Z,76.53
2022-08-26T16:51:57.916Z,78.81
2022-08-26T16:54:27.501Z,80.45
2022-08-26T16:56:57.154Z,79.96
2022-08-26T16:59:28.377Z,80.48
2022-08-26T17:01:57.952Z,82.40
2022-08-26T17:04:27.894Z,83.02
2022-08-26T17:06:57.334Z,83.61
2022-08-26T17:09:27.599Z,83.99
2022-08-26T17:11:57.212Z,86.43
2022-08-26T17:14:28.066Z,88.18
2022-08-26T17:16:57.553Z,89.77
2022-08-26T17:19:27.217Z,92.01
2022-08-26T17:21:56.805Z,93.61
2022-08-26T17:24:26.485Z,95.74
2022-08-26T17:26:56.131Z,96.98
2022-08-26T17:29:26.991Z,98.56
2022-08-26T17:32:02.342Z,100.00
2022-08-26T17:34:31.844Z,100.00
2022-08-26T17:37:01.567Z,100.00
2022-08-26T17:39:31.153Z,100.00
2022-08-26T17:42:00.702Z,100.00
2022-08-26T17:44:31.755Z,100.00
2022-08-26T17:47:01.230Z,100.00
2022-08-26T17:49:30.742Z,100.00
2022-08-26T17:52:01.256Z,100.00
2022-08-26T17:54:31.210Z,100.00
2022-08-26T17:57:01.470Z,100.00
2022-08-26T17:59:32.554Z,100.00
2022-08-26T18:02:02.163Z,100.00
2022-08-26T18:04:32.689Z,100.00
2022-08-26T18:07:02.521Z,100.00
2022-08-26T18:09:32.893Z,100.00
2022-08-26T18:12:02.496Z,100.00
2022-08-26T18:14:35.223Z,100.00
2022-08-26T18:17:07.775Z,100.00
2022-08-26T18:19:37.779Z,100.00
2022-08-26T18:22:07.826Z,100.00
2022-08-26T18:24:37.416Z,100.00
2022-08-26T18:27:07.137Z,100.00
2022-08-26T18:29:38.057Z,100.00
2022-08-26T18:32:15.432Z,100.00
2022-08-26T18:34:45.124Z,100.00
2022-08-26T18:37:14.691Z,100.00
2022-08-26T18:39:44.284Z,100.00
2022-08-26T18:42:13.885Z,100.00
2022-08-26T18:44:44.741Z,100.00
2022-08-26T18:47:14.939Z,100.00
2022-08-26T18:49:44.943Z,100.00
2022-08-26T18:52:14.865Z,100.00
2022-08-26T18:54:44.600Z,100.00
2022-08-26T18:57:14.243Z,100.00
2022-08-26T18:59:45.080Z,100.00
2022-08-26T19:02:14.873Z,100.00
2022-08-26T19:04:44.752Z,100.00
2022-08-26T19:07:14.567Z,100.00
2022-08-26T19:09:44.074Z,100.00
2022-08-26T19:12:14.857Z,100.00
2022-08-26T19:14:47.199Z,100.00
2022-08-26T19:17:16.981Z,100.00
2022-08-26T19:19:53.504Z,100.00
2022-08-26T19:22:23.599Z,100.00
2022-08-26T19:24:53.077Z,100.00
2022-08-26T19:27:22.655Z,100.00
2022-08-26T19:29:53.545Z,100.00
2022-08-26T19:32:24.256Z,100.00
2022-08-26T19:34:54.486Z,100.00
2022-08-26T19:37:24.444Z,100.00
2022-08-26T19:39:53.916Z,100.00
2022-08-26T19:42:23.452Z,100.00
2022-08-26T19:45:24.431Z,100.00
2022-08-26T19:47:54.709Z,100.00
2022-08-26T19:50:26.778Z,100.00
2022-08-26T19:52:56.584Z,100.00
2022-08-26T19:55:28.902Z,100.00
2022-08-26T19:57:58.459Z,100.00
2022-08-26T20:00:31.988Z,100.00
2022-08-26T20:03:02.218Z,100.00
2022-08-26T20:05:31.767Z,100.00
2022-08-26T20:08:01.261Z,100.00
2022-08-26T20:10:30.837Z,100.00
2022-08-26T20:13:01.188Z,100.00
2022-08-26T20:15:33.445Z,100.00
2022-08-26T20:18:02.969Z,100.00
2022-08-26T20:20:50.316Z,100.00
2022-08-26T20:23:21.033Z,100.00
2022-08-26T20:25:50.562Z,100.00
2022-08-26T20:28:20.119Z,100.00
2022-08-26T20:30:50.980Z,100.00
2022-08-26T20:33:20.744Z,100.00
2022-08-26T20:35:51.413Z,100.00
2022-08-26T20:38:21.650Z,100.00
2022-08-26T20:40:51.786Z,100.00
2022-08-26T20:43:25.983Z,100.00
2022-08-26T20:45:57.033Z,100.00
2022-08-26T20:48:26.652Z,100.00
2022-08-26T20:50:59.893Z,100.00
2022-08-26T20:53:31.385Z,100.00
2022-08-26T20:56:02.607Z,100.00
2022-08-26T20:58:32.448Z,100.00
2022-08-26T21:01:07.592Z,100.00
2022-08-26T21:03:38.220Z,100.00
2022-08-26T21:06:09.053Z,100.00
2022-08-26T21:08:42.663Z,100.00
2022-08-26T21:11:13.535Z,100.00
2022-08-26T21:14:03.748Z,100.00
2022-08-26T21:16:36.560Z,100.00
2022-08-26T21:19:10.540Z,100.00
2022-08-26T21:21:40.929Z,100.00
2022-08-26T21:24:10.837Z,100.00
2022-08-26T21:26:41.206Z,100.00
2022-08-26T21:29:10.843Z,100.00
2022-08-26T21:31:46.051Z,100.00
2022-08-26T21:34:18.744Z,100.00
2022-08-26T21:36:49.546Z,100.00
2022-08-26T21:39:19.796Z,100.00
2022-08-26T21:41:50.548Z,100.00
2022-08-26T21:44:20.052Z,100.00
2022-08-26T21:46:50.991Z,100.00
2022-08-26T21:49:23.292Z,100.00
2022-08-26T21:51:55.161Z,100.00
2022-08-26T21:54:24.672Z,100.00
2022-08-26T21:56:56.126Z,100.00
2022-08-26T21:59:26.001Z,100.00
2022-08-26T22:01:57.769Z,100.00
2022-08-26T22:04:27.731Z,100.00
2022-08-26T22:06:58.843Z,100.00
2022-08-26T22:09:32.241Z,100.00
2022-08-26T22:12:01.936Z,100.00
2022-08-26T22:14:31.964Z,100.00
2022-08-26T22:17:03.485Z,100.00
2022-08-26T22:19:34.136Z,100.00
2022-08-26T22:22:16.751Z,100.00
2022-08-26T22:24:46.194Z,100.00
2022-08-26T22:27:15.727Z,100.00
2022-08-26T22:29:46.480Z,100.00
2022-08-26T22:32:18.534Z,100.00
2022-08-26T22:34:48.517Z,100.00
2022-08-26T22:37:18.034Z,100.00
2022-08-26T22:39:47.514Z,100.00
2022-08-26T22:42:17.029Z,100.00
2022-08-26T22:44:46.998Z,100.00
2022-08-26T22:47:18.451Z,100.00
2022-08-26T22:49:47.880Z,100.00
2022-08-26T22:52:17.345Z,100.00
2022-08-26T22:54:46.950Z,100.00
2022-08-26T22:57:16.514Z,100.00
2022-08-26T22:59:46.174Z,100.00
2022-08-26T23:02:17.631Z,100.00
2022-08-26T23:04:47.133Z,100.00
2022-08-26T23:07:16.684Z,100.00
2022-08-26T23:09:46.320Z,100.00
2022-08-26T23:12:16.400Z,100.00
2022-08-26T23:14:46.161Z,100.00
2022-08-26T23:17:17.348Z,100.00
2022-08-26T23:19:46.957Z,100.00
2022-08-26T23:22:17.363Z,100.00
2022-08-26T23:24:46.951Z,100.00
2022-08-26T23:27:16.615Z,100.00
2022-08-26T23:29:46.500Z,100.00
2022-08-26T23:32:17.405Z,100.00
2022-08-26T23:35:04.709Z,100.00
2022-08-26T23:37:38.965Z,100.00
2022-08-26T23:40:16.709Z,100.00
2022-08-26T23:42:46.205Z,100.00
2022-08-26T23:45:18.399Z,100.00
2022-08-26T23:47:50.764Z,100.00
2022-08-26T23:50:23.544Z,100.00
2022-08-26T23:53:08.616Z,100.00
2022-08-26T23:55:39.963Z,100.00
2022-08-26T23:58:09.555Z,100.00
